createdAt,value
2022-09-25T00:00:59.360Z,50.87
2022-09-25T00:03:28.498Z,10.33
2022-09-25T00:06:07.982Z,7.60
2022-09-25T00:08:35.897Z,7.03
2022-09-25T00:11:07.612Z,15.67
2022-09-25T00:13:34.401Z,7.63
2022-09-25T00:16:00.951Z,7.43
2022-09-25T00:18:46.418Z,7.40
2022-09-25T00:21:14.539Z,8.30
2022-09-25T00:23:44.246Z,7.40
2022-09-25T00:26:12.392Z,7.73
2022-09-25T00:28:40.819Z,7.40
2022-09-25T00:31:08.161Z,7.70
2022-09-25T00:33:36.074Z,7.70
2022-09-25T00:36:06.422Z,8.13
2022-09-25T00:38:34.684Z,7.67
2022-09-25T00:41:01.737Z,8.43
2022-09-25T00:43:37.983Z,7.13
2022-09-25T00:46:09.803Z,8.20
2022-09-25T00:48:36.686Z,8.20
2022-09-25T00:51:03.392Z,7.83
2022-09-25T00:53:35.385Z,8.23
2022-09-25T00:56:03.125Z,8.20
2022-09-25T00:58:31.956Z,8.00
2022-09-25T01:00:59.374Z,7.40
2022-09-25T01:03:27.509Z,8.37
2022-09-25T01:05:54.754Z,7.83
2022-09-25T01:08:26.380Z,7.90
2022-09-25T01:10:52.998Z,7.33
2022-09-25T01:13:20.305Z,8.57
2022-09-25T01:15:57.569Z,7.97
2022-09-25T01:18:27.166Z,7.07
2022-09-25T01:21:06.807Z,6.90
2022-09-25T01:23:51.602Z,6.90
2022-09-25T01:26:36.520Z,6.77
2022-09-25T01:29:07.414Z,6.83
2022-09-25T01:31:47.939Z,6.07
2022-09-25T01:34:23.506Z,6.80
2022-09-25T01:37:16.961Z,6.63
2022-09-25T01:40:12.506Z,6.63
2022-09-25T01:42:49.477Z,6.03
2022-09-25T01:45:28.060Z,6.00
2022-09-25T01:47:57.256Z,5.07
2022-09-25T01:50:31.700Z,5.53
2022-09-25T01:53:01.427Z,5.20
2022-09-25T01:55:38.701Z,5.37
2022-09-25T01:58:27.803Z,4.73
2022-09-25T02:00:59.560Z,4.30
2022-09-25T02:03:40.072Z,4.07
2022-09-25T02:06:10.209Z,3.93
2022-09-25T02:08:40.480Z,3.87
2022-09-25T02:11:07.201Z,3.00
2022-09-25T02:13:41.624Z,3.83
2022-09-25T02:16:12.635Z,3.37
2022-09-25T02:18:58.415Z,3.00
2022-09-25T02:21:51.789Z,3.20
2022-09-25T02:24:40.431Z,2.70
2022-09-25T02:27:06.921Z,2.60
2022-09-25T02:29:33.515Z,2.70
2022-09-25T02:32:05.668Z,3.00
2022-09-25T02:34:33.163Z,2.43
2022-09-25T02:37:00.055Z,2.73
2022-09-25T02:39:29.137Z,2.60
2022-09-25T02:42:04.838Z,2.40
2022-09-25T02:44:31.278Z,2.27
2022-09-25T02:47:14.384Z,2.90
2022-09-25T02:49:51.880Z,2.23
2022-09-25T02:52:26.804Z,2.63
2022-09-25T02:55:28.431Z,2.00
2022-09-25T02:58:09.717Z,2.13
2022-09-25T03:00:38.169Z,2.60
2022-09-25T03:03:07.832Z,1.80
2022-09-25T03:05:34.304Z,2.63
2022-09-25T03:08:19.767Z,2.67
2022-09-25T03:10:46.619Z,2.43
2022-09-25T03:13:14.719Z,2.20
2022-09-25T03:15:45.007Z,2.30
2022-09-25T03:18:12.999Z,2.67
2022-09-25T03:20:40.384Z,2.70
2022-09-25T03:23:07.860Z,2.57
2022-09-25T03:25:34.373Z,2.40
2022-09-25T03:28:00.987Z,2.50
2022-09-25T03:30:29.470Z,1.87
2022-09-25T03:32:56.093Z,2.37
2022-09-25T03:35:23.105Z,6.80
2022-09-25T03:37:49.788Z,4.27
2022-09-25T03:40:16.399Z,2.73
2022-09-25T03:42:44.004Z,1.80
2022-09-25T03:45:11.299Z,2.43
2022-09-25T03:47:38.255Z,2.50
2022-09-25T03:50:04.967Z,2.20
2022-09-25T03:52:31.887Z,2.53
2022-09-25T03:54:58.323Z,2.20
2022-09-25T03:57:27.043Z,2.40
2022-09-25T03:59:53.943Z,2.33
2022-09-25T04:02:20.496Z,2.00
2022-09-25T04:04:47.074Z,2.13
2022-09-25T04:07:13.613Z,2.50
2022-09-25T04:09:40.071Z,1.90
2022-09-25T04:12:07.369Z,2.30
2022-09-25T04:14:33.962Z,2.80
2022-09-25T04:17:00.400Z,1.93
2022-09-25T04:19:26.822Z,2.13
2022-09-25T04:21:53.379Z,2.43
2022-09-25T04:24:38.959Z,2.23
2022-09-25T04:27:05.387Z,1.90
2022-09-25T04:29:32.250Z,2.23
2022-09-25T04:32:17.292Z,1.97
2022-09-25T04:34:43.735Z,2.30
2022-09-25T04:37:10.584Z,2.50
2022-09-25T04:39:37.012Z,2.20
2022-09-25T04:42:03.756Z,2.30
2022-09-25T04:44:31.105Z,2.20
2022-09-25T04:46:57.735Z,2.53
2022-09-25T04:49:24.252Z,2.03
2022-09-25T04:51:50.714Z,2.07
2022-09-25T04:54:17.348Z,2.50
2022-09-25T04:56:44.072Z,2.03
2022-09-25T04:59:17.449Z,2.53
2022-09-25T05:01:43.991Z,2.33
2022-09-25T05:04:10.975Z,2.40
2022-09-25T05:06:37.563Z,2.00
2022-09-25T05:09:04.211Z,2.37
2022-09-25T05:11:30.781Z,2.30
2022-09-25T05:13:57.301Z,2.57
2022-09-25T05:16:23.838Z,2.47
2022-09-25T05:18:50.340Z,2.50
2022-09-25T05:21:16.825Z,2.30
2022-09-25T05:23:43.338Z,2.23
2022-09-25T05:26:10.302Z,2.60
2022-09-25T05:28:36.847Z,2.23
2022-09-25T05:31:04.236Z,2.87
2022-09-25T05:33:31.663Z,2.47
2022-09-25T05:36:05.252Z,2.87
2022-09-25T05:38:32.754Z,2.50
2022-09-25T05:41:05.011Z,2.73
2022-09-25T05:43:32.727Z,2.40
2022-09-25T05:46:00.084Z,2.67
2022-09-25T05:48:26.931Z,2.33
2022-09-25T05:50:54.546Z,2.23
2022-09-25T05:53:21.052Z,2.40
2022-09-25T05:55:55.739Z,2.00
2022-09-25T05:58:22.192Z,2.43
2022-09-25T06:00:48.891Z,4.40
2022-09-25T06:03:16.123Z,3.30
2022-09-25T06:05:42.976Z,2.93
2022-09-25T06:08:10.073Z,2.60
2022-09-25T06:10:36.602Z,2.43
2022-09-25T06:13:05.156Z,2.47
2022-09-25T06:15:37.750Z,2.63
2022-09-25T06:18:05.454Z,2.30
2022-09-25T06:20:32.531Z,1.97
2022-09-25T06:23:00.700Z,2.20
2022-09-25T06:25:30.580Z,2.10
2022-09-25T06:28:00.259Z,2.03
2022-09-25T06:30:34.295Z,2.83
2022-09-25T06:33:02.325Z,2.37
2022-09-25T06:35:29.372Z,1.93
2022-09-25T06:37:59.732Z,2.80
2022-09-25T06:40:30.144Z,2.20
2022-09-25T06:42:57.548Z,2.67
2022-09-25T06:45:24.632Z,2.70
2022-09-25T06:47:51.130Z,2.80
2022-09-25T06:50:17.616Z,2.60
2022-09-25T06:52:45.134Z,2.90
2022-09-25T06:55:11.764Z,2.93
2022-09-25T06:57:38.221Z,2.60
2022-09-25T07:00:05.845Z,3.07
2022-09-25T07:02:51.163Z,2.50
2022-09-25T07:05:18.869Z,2.50
2022-09-25T07:07:46.547Z,2.60
2022-09-25T07:10:13.152Z,2.47
2022-09-25T07:12:41.552Z,8.07
2022-09-25T07:15:08.811Z,3.30
2022-09-25T07:17:35.361Z,2.80
2022-09-25T07:20:02.381Z,8.83
2022-09-25T07:22:29.501Z,6.37
2022-09-25T07:24:56.057Z,4.90
2022-09-25T07:27:22.618Z,4.93
2022-09-25T07:29:49.087Z,3.63
2022-09-25T07:32:15.556Z,4.37
2022-09-25T07:34:42.653Z,3.90
2022-09-25T07:37:09.146Z,3.00
2022-09-25T07:39:35.668Z,2.93
2022-09-25T07:42:03.903Z,2.40
2022-09-25T07:44:36.303Z,2.93
2022-09-25T07:47:05.122Z,2.93
2022-09-25T07:49:32.086Z,3.37
2022-09-25T07:51:59.660Z,2.60
2022-09-25T07:54:26.074Z,2.60
2022-09-25T07:56:52.496Z,2.33
2022-09-25T07:59:19.117Z,5.83
2022-09-25T08:01:51.169Z,4.17
2022-09-25T08:04:20.073Z,2.63
2022-09-25T08:06:46.520Z,2.60
2022-09-25T08:09:13.043Z,2.20
2022-09-25T08:11:39.611Z,2.10
2022-09-25T08:14:06.117Z,2.07
2022-09-25T08:16:32.975Z,2.10
2022-09-25T08:18:59.402Z,2.43
2022-09-25T08:21:25.951Z,6.03
2022-09-25T08:23:53.560Z,4.40
2022-09-25T08:26:21.742Z,3.67
2022-09-25T08:28:48.320Z,2.50
2022-09-25T08:31:15.025Z,2.73
2022-09-25T08:33:49.377Z,2.50
2022-09-25T08:36:16.888Z,2.13
2022-09-25T08:38:43.509Z,2.27
2022-09-25T08:41:24.657Z,2.20
2022-09-25T08:44:05.224Z,2.03
2022-09-25T08:47:03.535Z,1.97
2022-09-25T08:49:34.981Z,2.30
2022-09-25T08:52:04.789Z,4.97
2022-09-25T08:54:32.609Z,3.00
2022-09-25T08:57:14.225Z,2.37
2022-09-25T08:59:44.103Z,2.07
2022-09-25T09:02:14.491Z,2.40
2022-09-25T09:05:01.816Z,2.17
2022-09-25T09:07:38.507Z,2.00
2022-09-25T09:10:23.941Z,2.87
2022-09-25T09:12:56.790Z,2.37
2022-09-25T09:15:39.720Z,1.50
2022-09-25T09:18:20.126Z,1.80
2022-09-25T09:20:54.791Z,2.10
2022-09-25T09:23:24.261Z,2.30
2022-09-25T09:26:01.960Z,1.70
2022-09-25T09:28:28.485Z,1.97
2022-09-25T09:31:17.306Z,4.60
2022-09-25T09:33:58.959Z,2.70
2022-09-25T09:36:44.512Z,1.77
2022-09-25T09:39:27.641Z,1.60
2022-09-25T09:42:15.076Z,1.83
2022-09-25T09:45:03.537Z,1.80
2022-09-25T09:47:48.834Z,1.67
2022-09-25T09:50:26.713Z,1.57
2022-09-25T09:53:01.270Z,1.50
2022-09-25T09:55:41.399Z,1.47
2022-09-25T09:58:19.742Z,1.43
2022-09-25T10:00:49.166Z,1.73
2022-09-25T10:03:28.728Z,2.23
2022-09-25T10:05:58.568Z,1.63
2022-09-25T10:08:25.129Z,6.20
2022-09-25T10:10:56.119Z,1.80
2022-09-25T10:13:32.935Z,1.50
2022-09-25T10:16:19.442Z,1.70
2022-09-25T10:19:04.232Z,1.33
2022-09-25T10:21:34.506Z,1.20
2022-09-25T10:24:03.323Z,1.50
2022-09-25T10:26:30.143Z,2.57
2022-09-25T10:29:01.326Z,1.77
2022-09-25T10:31:37.134Z,1.57
2022-09-25T10:34:16.497Z,4.80
2022-09-25T10:36:51.699Z,5.27
2022-09-25T10:39:49.822Z,2.00
2022-09-25T10:42:39.461Z,2.00
2022-09-25T10:45:26.907Z,1.57
2022-09-25T10:48:11.881Z,1.60
2022-09-25T10:50:38.611Z,1.63
2022-09-25T10:53:07.552Z,1.20
2022-09-25T10:55:53.790Z,1.10
2022-09-25T10:58:24.415Z,1.63
2022-09-25T11:00:51.731Z,1.50
2022-09-25T11:03:44.721Z,1.57
2022-09-25T11:06:20.859Z,1.40
2022-09-25T11:09:13.084Z,1.50
2022-09-25T11:11:40.963Z,1.60
2022-09-25T11:14:19.355Z,1.70
2022-09-25T11:16:51.126Z,1.00
2022-09-25T11:19:33.685Z,1.50
2022-09-25T11:22:07.944Z,2.00
2022-09-25T11:25:11.966Z,1.40
2022-09-25T11:27:41.090Z,1.30
2022-09-25T11:30:18.991Z,2.00
2022-09-25T11:33:03.228Z,1.60
2022-09-25T11:35:33.605Z,1.50
2022-09-25T11:38:46.977Z,1.37
2022-09-25T11:41:23.329Z,1.50
2022-09-25T11:44:12.922Z,1.40
2022-09-25T11:46:45.608Z,1.47
2022-09-25T11:49:18.499Z,1.30
2022-09-25T11:52:10.410Z,1.40
2022-09-25T11:55:20.681Z,1.50
2022-09-25T11:58:01.060Z,1.33
2022-09-25T12:00:51.846Z,1.13
2022-09-25T12:03:35.312Z,1.27
2022-09-25T12:06:03.040Z,4.63
2022-09-25T12:08:37.274Z,2.03
2022-09-25T12:11:28.581Z,2.77
2022-09-25T12:14:05.760Z,1.73
2022-09-25T12:16:58.156Z,2.00
2022-09-25T12:19:30.455Z,2.27
2022-09-25T12:22:19.951Z,3.77
2022-09-25T12:24:55.629Z,1.10
2022-09-25T12:27:42.184Z,1.20
2022-09-25T12:30:24.359Z,2.00
2022-09-25T12:33:22.535Z,1.30
2022-09-25T12:35:54.352Z,1.10
2022-09-25T12:38:38.152Z,1.20
2022-09-25T12:41:17.979Z,1.10
2022-09-25T12:44:01.989Z,1.10
2022-09-25T12:46:53.340Z,1.70
2022-09-25T12:49:51.248Z,1.63
2022-09-25T12:52:23.107Z,1.57
2022-09-25T12:54:56.756Z,2.03
2022-09-25T12:57:45.873Z,1.27
2022-09-25T13:00:23.029Z,1.70
2022-09-25T13:03:04.469Z,1.97
2022-09-25T13:05:56.544Z,1.23
2022-09-25T13:08:33.981Z,11.03
2022-09-25T13:11:00.620Z,4.03
2022-09-25T13:13:31.585Z,2.23
2022-09-25T13:15:59.785Z,1.20
2022-09-25T13:18:28.717Z,1.67
2022-09-25T13:20:56.837Z,1.50
2022-09-25T13:23:36.882Z,1.50
2022-09-25T13:26:09.865Z,1.03
2022-09-25T13:28:41.914Z,1.60
2022-09-25T13:31:11.324Z,1.67
2022-09-25T13:33:50.458Z,1.97
2022-09-25T13:36:39.478Z,1.90
2022-09-25T13:39:45.944Z,1.70
2022-09-25T13:42:29.851Z,1.70
2022-09-25T13:44:57.592Z,1.90
2022-09-25T13:47:24.249Z,1.63
2022-09-25T13:49:54.569Z,1.97
2022-09-25T13:52:31.958Z,1.60
2022-09-25T13:55:27.970Z,2.90
2022-09-25T13:57:55.943Z,1.67
2022-09-25T14:00:23.330Z,1.73
2022-09-25T14:02:50.438Z,2.20
2022-09-25T14:05:21.955Z,1.37
2022-09-25T14:07:54.895Z,8.57
2022-09-25T14:10:22.328Z,16.90
2022-09-25T14:12:49.904Z,5.17
2022-09-25T14:15:22.182Z,1.90
2022-09-25T14:17:51.426Z,2.30
2022-09-25T14:20:27.934Z,2.00
2022-09-25T14:22:56.460Z,1.80
2022-09-25T14:25:33.882Z,1.50
2022-09-25T14:28:01.806Z,1.70
2022-09-25T14:30:29.327Z,2.07
2022-09-25T14:33:11.151Z,1.57
2022-09-25T14:35:44.224Z,2.20
2022-09-25T14:38:27.972Z,1.43
2022-09-25T14:41:32.915Z,1.50
2022-09-25T14:44:23.630Z,1.70
2022-09-25T14:46:51.582Z,1.13
2022-09-25T14:49:27.242Z,1.60
2022-09-25T14:52:03.639Z,1.30
2022-09-25T14:54:36.574Z,1.27
2022-09-25T14:57:04.055Z,1.30
2022-09-25T14:59:32.033Z,1.40
2022-09-25T15:02:02.421Z,12.97
2022-09-25T15:04:32.765Z,6.77
2022-09-25T15:07:11.903Z,2.90
2022-09-25T15:09:50.173Z,1.70
2022-09-25T15:12:30.324Z,1.80
2022-09-25T15:15:11.236Z,1.53
2022-09-25T15:17:47.899Z,1.10
2022-09-25T15:20:18.945Z,1.40
2022-09-25T15:22:59.553Z,1.33
2022-09-25T15:25:33.399Z,1.50
2022-09-25T15:28:00.562Z,1.53
2022-09-25T15:30:28.032Z,1.40
2022-09-25T15:33:00.506Z,1.47
2022-09-25T15:35:28.962Z,1.77
2022-09-25T15:38:12.002Z,1.50
2022-09-25T15:40:39.120Z,1.40
2022-09-25T15:43:16.249Z,1.67
2022-09-25T15:45:55.022Z,1.97
2022-09-25T15:48:31.300Z,2.00
2022-09-25T15:51:00.932Z,2.13
2022-09-25T15:53:33.245Z,3.73
2022-09-25T15:56:17.054Z,1.50
2022-09-25T15:58:47.147Z,1.30
2022-09-25T16:01:33.280Z,1.47
2022-09-25T16:04:18.940Z,1.07
2022-09-25T16:06:45.907Z,1.50
2022-09-25T16:09:23.088Z,1.20
2022-09-25T16:11:50.017Z,1.40
2022-09-25T16:14:28.584Z,2.37
2022-09-25T16:16:55.253Z,2.30
2022-09-25T16:19:32.497Z,1.73
2022-09-25T16:22:03.475Z,1.90
2022-09-25T16:24:30.659Z,2.13
2022-09-25T16:27:02.421Z,2.17
2022-09-25T16:29:32.060Z,1.60
2022-09-25T16:32:08.480Z,3.27
2022-09-25T16:34:39.326Z,6.77
2022-09-25T16:37:17.313Z,1.90
2022-09-25T16:39:44.068Z,1.90
2022-09-25T16:42:31.388Z,1.87
2022-09-25T16:45:14.953Z,2.23
2022-09-25T16:47:46.821Z,3.50
2022-09-25T16:50:16.446Z,3.10
2022-09-25T16:52:43.832Z,3.20
2022-09-25T16:55:27.571Z,2.90
2022-09-25T16:57:55.076Z,4.23
2022-09-25T17:00:29.842Z,3.60
2022-09-25T17:02:56.806Z,4.40
2022-09-25T17:05:26.927Z,3.10
2022-09-25T17:07:58.225Z,2.47
2022-09-25T17:10:29.186Z,1.63
2022-09-25T17:12:57.576Z,1.73
2022-09-25T17:15:27.542Z,3.10
2022-09-25T17:17:55.085Z,2.80
2022-09-25T17:20:23.599Z,3.63
2022-09-25T17:22:51.924Z,4.60
2022-09-25T17:25:23.748Z,2.53
2022-09-25T17:27:50.283Z,3.70
2022-09-25T17:30:16.799Z,3.20
2022-09-25T17:32:44.914Z,3.37
2022-09-25T17:35:40.735Z,3.10
2022-09-25T17:38:07.363Z,3.67
2022-09-25T17:40:34.247Z,2.83
2022-09-25T17:43:01.015Z,3.37
2022-09-25T17:45:35.354Z,4.37
2022-09-25T17:48:02.127Z,6.67
2022-09-25T17:50:31.027Z,3.23
2022-09-25T17:52:58.987Z,2.33
2022-09-25T17:55:25.800Z,2.20
2022-09-25T17:57:52.329Z,1.90
2022-09-25T18:00:18.833Z,2.37
2022-09-25T18:02:45.468Z,2.13
2022-09-25T18:05:17.538Z,2.17
2022-09-25T18:07:44.131Z,3.07
2022-09-25T18:10:11.899Z,2.70
2022-09-25T18:12:38.496Z,2.97
2022-09-25T18:15:05.508Z,2.93
2022-09-25T18:17:32.065Z,2.50
2022-09-25T18:20:17.315Z,2.60
2022-09-25T18:22:44.571Z,2.70
2022-09-25T18:25:11.180Z,2.63
2022-09-25T18:27:39.161Z,2.67
2022-09-25T18:30:06.337Z,2.60
2022-09-25T18:32:33.014Z,2.33
2022-09-25T18:34:59.732Z,2.57
2022-09-25T18:37:26.203Z,3.80
2022-09-25T18:39:52.696Z,3.40
2022-09-25T18:42:19.399Z,2.87
2022-09-25T18:44:45.832Z,2.60
2022-09-25T18:47:12.491Z,2.60
2022-09-25T18:49:38.979Z,2.90
2022-09-25T18:52:05.943Z,3.50
2022-09-25T18:54:32.478Z,6.63
2022-09-25T18:56:59.117Z,3.80
2022-09-25T18:59:29.027Z,4.03
2022-09-25T19:01:55.897Z,4.23
2022-09-25T19:04:22.931Z,3.90
2022-09-25T19:06:49.426Z,3.00
2022-09-25T19:09:17.251Z,2.87
2022-09-25T19:11:44.578Z,3.23
2022-09-25T19:14:14.866Z,3.17
2022-09-25T19:16:41.591Z,2.87
2022-09-25T19:19:08.377Z,2.63
2022-09-25T19:21:35.225Z,2.53
2022-09-25T19:24:02.029Z,2.60
2022-09-25T19:26:28.607Z,2.87
2022-09-25T19:28:55.143Z,2.50
2022-09-25T19:31:24.290Z,3.70
2022-09-25T19:33:51.054Z,3.03
2022-09-25T19:36:32.568Z,2.30
2022-09-25T19:39:00.544Z,2.43
2022-09-25T19:41:33.447Z,2.60
2022-09-25T19:44:06.912Z,2.30
2022-09-25T19:46:37.864Z,2.63
2022-09-25T19:49:04.524Z,2.47
2022-09-25T19:51:31.129Z,2.33
2022-09-25T19:53:57.526Z,2.57
2022-09-25T19:56:24.186Z,2.43
2022-09-25T19:58:51.224Z,2.30
2022-09-25T20:01:18.863Z,2.53
2022-09-25T20:03:45.715Z,2.70
2022-09-25T20:06:12.801Z,2.60
2022-09-25T20:08:39.426Z,2.43
2022-09-25T20:11:22.575Z,2.80
2022-09-25T20:13:50.921Z,3.03
2022-09-25T20:16:20.526Z,3.10
2022-09-25T20:18:53.491Z,3.07
2022-09-25T20:21:21.937Z,2.70
2022-09-25T20:23:56.881Z,2.77
2022-09-25T20:26:24.075Z,2.70
2022-09-25T20:28:59.154Z,2.57
2022-09-25T20:31:27.185Z,2.73
2022-09-25T20:33:54.781Z,2.80
2022-09-25T20:36:22.066Z,2.87
2022-09-25T20:38:52.897Z,2.63
2022-09-25T20:41:20.770Z,2.80
2022-09-25T20:43:52.256Z,3.03
2022-09-25T20:46:22.286Z,2.63
2022-09-25T20:48:51.421Z,2.93
2022-09-25T20:51:20.037Z,2.80
2022-09-25T20:53:51.319Z,2.57
2022-09-25T20:56:18.790Z,3.27
2022-09-25T20:58:48.422Z,3.07
2022-09-25T21:01:22.870Z,2.90
2022-09-25T21:03:50.035Z,2.40
2022-09-25T21:06:25.578Z,2.70
2022-09-25T21:08:53.985Z,3.00
2022-09-25T21:11:21.502Z,2.90
2022-09-25T21:13:52.815Z,3.10
2022-09-25T21:16:20.837Z,3.03
2022-09-25T21:18:52.966Z,2.93
2022-09-25T21:21:19.857Z,2.47
2022-09-25T21:23:51.614Z,3.00
2022-09-25T21:26:18.657Z,3.30
2022-09-25T21:28:48.285Z,2.50
2022-09-25T21:31:17.885Z,2.60
2022-09-25T21:33:44.426Z,3.23
2022-09-25T21:36:17.102Z,2.93
2022-09-25T21:38:43.911Z,3.03
2022-09-25T21:41:18.987Z,2.80
2022-09-25T21:43:45.871Z,2.70
2022-09-25T21:46:15.743Z,2.60
2022-09-25T21:48:48.305Z,3.10
2022-09-25T21:51:15.736Z,3.33
2022-09-25T21:53:42.222Z,3.57
2022-09-25T21:56:11.171Z,3.20
2022-09-25T21:58:38.382Z,2.90
2022-09-25T22:01:09.203Z,3.50
2022-09-25T22:03:37.365Z,3.17
2022-09-25T22:06:06.965Z,3.33
2022-09-25T22:08:38.624Z,3.30
2022-09-25T22:11:06.469Z,3.60
2022-09-25T22:13:37.262Z,3.37
2022-09-25T22:16:14.960Z,3.90
2022-09-25T22:18:46.517Z,3.37
2022-09-25T22:21:15.437Z,3.30
2022-09-25T22:23:42.010Z,3.77
2022-09-25T22:26:08.594Z,3.00
2022-09-25T22:28:35.944Z,3.87
2022-09-25T22:31:11.984Z,2.80
2022-09-25T22:33:38.787Z,3.23
2022-09-25T22:36:08.892Z,3.30
2022-09-25T22:38:36.040Z,3.30
2022-09-25T22:41:10.548Z,3.43
2022-09-25T22:43:37.513Z,2.90
2022-09-25T22:46:05.330Z,2.90
2022-09-25T22:48:32.232Z,3.60
2022-09-25T22:53:55.170Z,3.27
2022-09-25T22:56:24.431Z,3.07
2022-09-25T22:58:54.419Z,3.23
2022-09-25T23:01:23.987Z,2.80
2022-09-25T23:03:57.839Z,3.43
2022-09-25T23:06:24.965Z,2.83
2022-09-25T23:08:53.273Z,2.63
2022-09-25T23:11:22.009Z,2.70
2022-09-25T23:13:59.139Z,3.07
2022-09-25T23:16:25.967Z,2.70
2022-09-25T23:18:52.857Z,3.47
2022-09-25T23:21:19.292Z,3.03
2022-09-25T23:23:45.805Z,3.63
2022-09-25T23:26:12.283Z,3.40
2022-09-25T23:28:40.508Z,3.23
2022-09-25T23:31:15.323Z,3.30
2022-09-25T23:33:42.628Z,3.23
2022-09-25T23:36:17.133Z,3.40
2022-09-25T23:38:44.563Z,3.27
2022-09-25T23:41:28.318Z,3.03
2022-09-25T23:43:55.325Z,3.17
2022-09-25T23:46:23.362Z,3.47
2022-09-25T23:48:50.311Z,3.23
2022-09-25T23:51:17.696Z,3.03
2022-09-25T23:53:44.807Z,2.77
2022-09-25T23:56:14.082Z,2.87
2022-09-25T23:58:40.937Z,3.00
